Auvergne, Arkansas
Current Conditions -  °F | °C
As of 8:56 PM on Monday 22 Dec 2014 (Local Time) from KM19 Reporting Station
Haze Haze  
Wind Chill: 52°   Ceiling: 6500
Heat Index: 52°   Visibility: 3mi
Dew Point: 52°   Wind: 7mph
Humidity: 100%   Direction: 200°SSW
Pressure: 29.64"   Gusts: NA
Location:  35.5678°N, 91.2073°W
Report Text: KM19 230256Z AUTO 20006KT 3SM BR FEW033 OVC065 11/11 A2964 RMK AO2 53012 60000 T01110111 SLP037
Loading
Personal Weather Stations






























Interactive Weather Map New forecast layout! Learn more

10-Day Weather Forecast

Advertisements
Track Severe Weather on mobile